Georgetown, SC

10:59 AM EST on March 04, 2015 (GMT -0500)
Mt. Pleasant Plantation | Change Station
CLOSE
Current Station
Personal Weather Station
Location: Andrews, SC
Elevation: 62 ft
Nearby Weather Stations
Active Advisory: Flood Warning

Elev 62 ft 33.50 °N, 79.46 °W | Updated 11 minutes ago

Overcast
Overcast
75.1 °F
Feels Like 76 °F
N
2.0
Wind Variable Wind from SSE
Gusts 13.0 mph

Today
High -- | Low -- °F
--% Chance of Precip.
Yesterday
High -- | Low -- °F
Precip. -- in
6:42 AM 6:16 PM
Waxing Gibbous, 99% visible
Pressure 30.10 in
Visibility 10.0 miles
Clouds Scattered Clouds 1900 ft
Scattered Clouds 2600 ft
Heat Index 76 °F
Dew Point 67 °F
Humidity 77%
Rainfall 0.00 in
Snow Depth Not available.
UV 5 out of 12
Pollen 9.70 out of 12
Air Quality Not available.
Flu Activity Not available.
METAR KGGE 041555Z AUTO 20011G18KT 10SM SCT019 SCT026 24/20 A3010 RMK AO2

More Conditions Fewer Conditions

Pressure 30.10 in
Visibility 10.0 miles
Clouds Scattered Clouds 1900 ft
Scattered Clouds 2600 ft
Heat Index 76 °F
Dew Point 67 °F
Humidity 77%
Rainfall 0.00 in
Snow Depth Not available.
UV 5 out of 12
Pollen 9.70 out of 12
Air Quality Not available.
Flu Activity Not available.
METAR KGGE 041555Z AUTO 20011G18KT 10SM SCT019 SCT026 24/20 A3010 RMK AO2

More Conditions Fewer Conditions

10-Day Weather Forecast

Almanac

Astronomy

Mar. 04, 2015 Rise Set
Actual Time
Civil Twilight
Nautical Twilight
Astronomical Twilight
Moon
Length of Visible Light
Length of Day
Tomorrow will be .
, % of the Moon is Illuminated

Today's Extremes

State Highs State Lows

Community

WunderPhotos

Upload Photos

1,802,496 photos uploaded!

WunderBlogs® & News

Nearby

Air Quality

  Air Quality AQ Index Pollutant
Not available.

Snow Depth

Station Depth Elevation

Earthquake Activity

City Distance Mag. Time & Date
Minimum magnitude displayed is 2.5.

Coastal Water Temperatures

Place Temperature

Nearby Weather Stations

Flood Warning
Statement as of 10:25 AM EST on March 04, 2015

The Flood Warning continues for
the Santee river near Jamestown.
* At 9 am Wednesday the stage was 10.2 feet.
* Flood stage is 10.0 feet.
* Minor flooding is occurring.
* Forecast, the river will rise to near 10.3 feet by Thursday morning
then begin a slow fall.
* At 10.0 feet, water covers numerous logging roads and inundates
Timber land adjacent to the river. Most access points to wee tee
state Forest are cut off.


Lat... Lon 3347 8002 3354 7998 3335 7969 3327 7946
          3320 7951 3329 7976